createdAt,value
2018-11-14T00:02:08.133Z,14.50
2018-11-14T00:04:39.293Z,14.50
2018-11-14T00:07:10.812Z,14.50
2018-11-14T00:09:42.101Z,14.50
2018-11-14T00:12:13.737Z,14.50
2018-11-14T00:14:45.697Z,14.50
2018-11-14T00:17:17.526Z,14.50
2018-11-14T00:19:48.637Z,14.40
2018-11-14T00:22:19.877Z,14.50
2018-11-14T00:24:51.007Z,14.30
2018-11-14T00:27:22.337Z,14.20
2018-11-14T00:29:53.492Z,14.30
2018-11-14T00:32:24.844Z,14.20
2018-11-14T00:34:56.268Z,14.20
2018-11-14T00:37:27.461Z,14.30
2018-11-14T00:39:58.721Z,14.30
2018-11-14T00:42:30.236Z,14.40
2018-11-14T00:45:01.392Z,14.50
2018-11-14T00:47:32.612Z,14.50
2018-11-14T00:50:03.737Z,14.50
2018-11-14T00:52:37.036Z,14.50
2018-11-14T00:55:10.986Z,14.50
2018-11-14T00:57:42.831Z,14.50
2018-11-14T01:00:20.387Z,14.50
2018-11-14T01:02:51.791Z,14.50
2018-11-14T01:05:22.996Z,14.50
2018-11-14T01:07:54.367Z,14.50
2018-11-14T01:10:25.546Z,14.60
2018-11-14T01:12:56.796Z,14.50
2018-11-14T01:15:28.064Z,14.60
2018-11-14T01:17:59.371Z,14.50
2018-11-14T01:20:30.511Z,14.60
2018-11-14T01:23:01.716Z,14.60
2018-11-14T01:25:32.917Z,14.60
2018-11-14T01:28:04.127Z,14.60
2018-11-14T01:30:35.316Z,14.50
2018-11-14T01:33:07.258Z,14.50
2018-11-14T01:35:39.499Z,14.40
2018-11-14T01:38:10.867Z,14.40
2018-11-14T01:40:42.726Z,14.30
2018-11-14T01:43:13.958Z,14.20
2018-11-14T01:45:47.810Z,14.20
2018-11-14T01:48:19.191Z,14.10
2018-11-14T01:50:51.364Z,14.10
2018-11-14T01:53:22.572Z,14.10
2018-11-14T01:55:53.809Z,14.10
2018-11-14T01:58:25.187Z,14.00
2018-11-14T02:00:56.371Z,14.00
2018-11-14T02:03:27.942Z,14.00
2018-11-14T02:05:59.819Z,14.10
2018-11-14T02:08:31.002Z,14.10
2018-11-14T02:11:02.171Z,14.20
2018-11-14T02:13:33.481Z,14.20
2018-11-14T02:16:04.671Z,14.20
2018-11-14T02:18:36.782Z,14.20
2018-11-14T02:21:07.986Z,14.10
2018-11-14T02:23:39.616Z,14.10
2018-11-14T02:26:11.576Z,14.20
2018-11-14T02:28:42.786Z,14.20
2018-11-14T02:31:14.051Z,14.20
2018-11-14T02:33:45.251Z,14.20
2018-11-14T02:36:16.791Z,14.20
2018-11-14T02:38:48.052Z,14.10
2018-11-14T02:41:19.336Z,14.10
2018-11-14T02:43:50.471Z,14.10
2018-11-14T02:46:21.591Z,14.20
2018-11-14T02:48:52.827Z,14.10
2018-11-14T02:51:27.178Z,14.00
2018-11-14T02:53:58.452Z,14.00
2018-11-14T02:56:30.396Z,14.00
2018-11-14T02:59:01.758Z,14.00
2018-11-14T03:01:32.977Z,14.00
2018-11-14T03:04:04.989Z,14.00
2018-11-14T03:06:36.417Z,14.00
2018-11-14T03:09:09.498Z,13.90
2018-11-14T03:11:41.327Z,13.90
2018-11-14T03:14:13.537Z,13.90
2018-11-14T03:16:45.621Z,13.90
2018-11-14T03:19:16.887Z,13.90
2018-11-14T03:21:48.057Z,13.80
2018-11-14T03:24:19.567Z,13.90
2018-11-14T03:26:50.746Z,13.80
2018-11-14T03:29:22.217Z,13.90
2018-11-14T03:31:53.432Z,13.90
2018-11-14T03:34:25.652Z,13.80
2018-11-14T03:36:56.836Z,13.70
2018-11-14T03:39:28.211Z,13.70
2018-11-14T03:41:59.386Z,13.80
2018-11-14T03:44:30.762Z,13.80
2018-11-14T03:47:02.086Z,13.80
2018-11-14T03:49:33.471Z,13.80
2018-11-14T03:52:04.842Z,13.70
2018-11-14T03:54:35.996Z,13.70
2018-11-14T03:57:07.442Z,13.70
2018-11-14T03:59:38.712Z,13.60
2018-11-14T04:02:10.051Z,13.60
2018-11-14T04:04:41.346Z,13.60
2018-11-14T04:07:13.030Z,13.60
2018-11-14T04:09:45.038Z,13.50
2018-11-14T04:12:16.286Z,13.50
2018-11-14T04:14:47.646Z,13.50
2018-11-14T04:17:18.786Z,13.50
2018-11-14T04:19:49.951Z,13.50
2018-11-14T04:22:21.336Z,13.50
2018-11-14T04:24:52.594Z,13.40
2018-11-14T04:27:23.841Z,13.50
2018-11-14T04:29:55.161Z,13.60
2018-11-14T04:32:26.257Z,13.60
2018-11-14T04:34:57.594Z,13.60
2018-11-14T04:37:28.767Z,13.70
2018-11-14T04:40:00.087Z,13.80
2018-11-14T04:42:31.251Z,13.80
2018-11-14T04:45:02.481Z,13.80
2018-11-14T04:47:33.912Z,13.90
2018-11-14T04:50:05.212Z,14.00
2018-11-14T04:52:36.383Z,14.00
2018-11-14T04:55:08.932Z,14.10
2018-11-14T04:57:40.706Z,14.10
2018-11-14T05:00:13.397Z,14.20
2018-11-14T05:02:45.346Z,14.20
2018-11-14T05:05:18.984Z,14.40
2018-11-14T05:07:50.391Z,14.30
2018-11-14T05:10:26.430Z,14.40
2018-11-14T05:12:57.756Z,14.50
2018-11-14T05:15:29.111Z,14.70
2018-11-14T05:18:01.141Z,14.80
2018-11-14T05:20:32.506Z,14.80
2018-11-14T05:23:03.597Z,14.70
2018-11-14T05:25:34.831Z,14.70
2018-11-14T05:28:05.972Z,14.80
2018-11-14T05:30:37.312Z,14.80
2018-11-14T05:33:08.472Z,14.80
2018-11-14T05:35:39.797Z,14.80
2018-11-14T05:38:10.972Z,14.80
2018-11-14T05:40:42.201Z,14.80
2018-11-14T05:43:13.391Z,15.00
2018-11-14T05:45:44.698Z,15.10
2018-11-14T05:48:15.786Z,14.90
2018-11-14T05:50:47.277Z,15.10
2018-11-14T05:53:18.422Z,15.00
2018-11-14T05:55:49.764Z,15.10
2018-11-14T05:58:21.101Z,15.20
2018-11-14T06:00:52.514Z,15.20
2018-11-14T06:03:23.626Z,15.30
2018-11-14T06:05:55.221Z,15.30
2018-11-14T06:08:26.362Z,15.30
2018-11-14T06:10:57.756Z,15.50
2018-11-14T06:13:28.904Z,15.40
2018-11-14T06:16:00.116Z,15.40
2018-11-14T06:18:31.247Z,15.40
2018-11-14T06:21:02.462Z,15.50
2018-11-14T06:23:33.648Z,15.50
2018-11-14T06:26:04.972Z,15.30
2018-11-14T06:28:36.022Z,15.60
2018-11-14T06:31:08.232Z,15.80
2018-11-14T06:33:39.542Z,15.60
2018-11-14T06:36:10.930Z,15.50
2018-11-14T06:38:42.271Z,15.40
2018-11-14T06:41:13.889Z,15.10
2018-11-14T06:43:45.052Z,15.00
2018-11-14T06:46:16.651Z,15.30
2018-11-14T06:48:47.971Z,15.50
2018-11-14T06:51:19.201Z,15.40
2018-11-14T06:53:50.552Z,15.00
2018-11-14T06:56:21.775Z,14.90
2018-11-14T06:58:53.232Z,14.90
2018-11-14T07:01:24.491Z,15.00
2018-11-14T07:03:55.912Z,15.00
2018-11-14T07:06:27.612Z,15.20
2018-11-14T07:08:58.983Z,15.20
2018-11-14T07:11:30.993Z,15.20
2018-11-14T07:14:02.334Z,15.10
2018-11-14T07:16:39.957Z,15.10
2018-11-14T07:19:11.381Z,15.00
2018-11-14T07:21:43.666Z,15.10
2018-11-14T07:24:14.922Z,15.30
2018-11-14T07:26:47.157Z,15.70
2018-11-14T07:29:18.391Z,15.70
2018-11-14T07:31:49.632Z,15.60
2018-11-14T07:34:20.988Z,15.70
2018-11-14T07:36:52.331Z,15.60
2018-11-14T07:39:23.471Z,15.50
2018-11-14T07:41:54.812Z,15.40
2018-11-14T07:44:25.907Z,15.30
2018-11-14T07:46:57.152Z,15.10
2018-11-14T07:49:28.792Z,15.20
2018-11-14T07:52:00.302Z,15.30
2018-11-14T07:54:31.925Z,15.10
2018-11-14T07:57:04.008Z,15.10
2018-11-14T07:59:35.491Z,15.10
2018-11-14T08:02:07.498Z,15.00
2018-11-14T08:04:38.721Z,15.10
2018-11-14T08:07:10.487Z,15.20
2018-11-14T08:09:41.566Z,15.30
2018-11-14T08:12:13.056Z,15.30
2018-11-14T08:14:44.141Z,15.20
2018-11-14T08:17:15.363Z,15.20
2018-11-14T08:19:47.211Z,15.20
2018-11-14T08:22:18.716Z,15.30
2018-11-14T08:24:50.007Z,15.50
2018-11-14T08:27:21.227Z,15.50
2018-11-14T08:29:52.708Z,15.70
2018-11-14T08:32:23.862Z,15.70
2018-11-14T08:34:55.192Z,15.80
2018-11-14T08:37:26.308Z,16.00
2018-11-14T08:39:57.937Z,16.10
2018-11-14T08:42:29.482Z,15.60
2018-11-14T08:45:00.662Z,15.40
2018-11-14T08:47:31.867Z,15.30
2018-11-14T08:50:03.319Z,15.20
2018-11-14T08:52:34.551Z,15.20
2018-11-14T08:55:05.986Z,15.20
2018-11-14T08:57:37.662Z,15.30
2018-11-14T09:00:11.557Z,15.30
2018-11-14T09:02:42.727Z,15.20
2018-11-14T09:05:13.817Z,15.20
2018-11-14T09:07:46.017Z,15.30
2018-11-14T09:10:18.743Z,15.20
2018-11-14T09:12:50.441Z,15.20
2018-11-14T09:15:23.677Z,15.30
2018-11-14T09:17:55.336Z,15.30
2018-11-14T09:20:27.518Z,15.30
2018-11-14T09:22:58.866Z,15.30
2018-11-14T09:25:32.223Z,15.40
2018-11-14T09:28:04.426Z,15.40
2018-11-14T09:30:36.042Z,15.50
2018-11-14T09:33:07.671Z,15.30
2018-11-14T09:35:39.161Z,15.10
2018-11-14T09:38:10.837Z,15.10
2018-11-14T09:40:41.966Z,15.00
2018-11-14T09:43:13.796Z,15.00
2018-11-14T09:45:45.028Z,15.00
2018-11-14T09:48:16.805Z,14.90
2018-11-14T09:50:47.916Z,15.00
2018-11-14T09:53:19.280Z,15.00
2018-11-14T09:55:50.641Z,15.00
2018-11-14T09:58:22.247Z,15.00
2018-11-14T10:00:54.582Z,14.90
2018-11-14T10:03:26.644Z,14.90
2018-11-14T10:05:58.837Z,14.90
2018-11-14T10:08:30.326Z,14.80
2018-11-14T10:11:02.207Z,14.80
2018-11-14T10:13:33.776Z,14.70
2018-11-14T10:16:04.832Z,14.70
2018-11-14T10:18:36.162Z,14.80
2018-11-14T10:21:07.484Z,14.90
2018-11-14T10:23:39.083Z,14.90
2018-11-14T10:26:10.476Z,14.90
2018-11-14T10:28:41.956Z,14.90
2018-11-14T10:31:13.091Z,15.10
2018-11-14T10:33:44.562Z,15.10
2018-11-14T10:36:15.973Z,15.30
2018-11-14T10:38:48.201Z,15.20
2018-11-14T10:41:20.044Z,15.30
2018-11-14T10:43:51.327Z,15.30
2018-11-14T10:46:23.026Z,15.50
2018-11-14T10:48:54.924Z,15.70
2018-11-14T10:51:26.594Z,15.70
2018-11-14T10:53:58.419Z,16.20
2018-11-14T10:56:29.652Z,16.80
2018-11-14T10:59:01.122Z,17.20
2018-11-14T11:01:37.266Z,17.20
2018-11-14T11:04:13.407Z,16.90
2018-11-14T11:06:49.347Z,17.00
2018-11-14T11:09:25.156Z,17.10
2018-11-14T11:12:01.373Z,17.00
2018-11-14T11:14:37.781Z,17.10
2018-11-14T11:19:53.952Z,17.00
2018-11-14T11:22:24.248Z,16.90
2018-11-14T11:24:56.773Z,16.70
2018-11-14T11:27:27.169Z,16.80
2018-11-14T11:30:00.025Z,17.00
2018-11-14T11:32:30.348Z,17.10
2018-11-14T11:35:00.882Z,16.90
2018-11-14T11:37:32.008Z,16.60
2018-11-14T11:40:04.713Z,16.40
2018-11-14T11:42:35.188Z,16.30
2018-11-14T11:45:08.638Z,16.40
2018-11-14T11:47:39.028Z,16.60
2018-11-14T11:50:11.613Z,16.50
2018-11-14T11:52:41.873Z,16.50
2018-11-14T11:55:14.943Z,16.70
2018-11-14T11:57:45.217Z,16.30
2018-11-14T12:00:17.906Z,16.10
2018-11-14T12:02:50.933Z,16.10
2018-11-14T12:07:59.610Z,16.30
2018-11-14T12:10:30.126Z,16.30
2018-11-14T12:15:38.040Z,16.20
2018-11-14T12:18:08.855Z,16.30
2018-11-14T12:20:41.308Z,16.20
2018-11-14T12:23:12.028Z,16.20
2018-11-14T12:25:44.622Z,16.20
2018-11-14T12:28:15.018Z,16.20
2018-11-14T12:30:48.095Z,16.30
2018-11-14T12:33:18.434Z,16.40
2018-11-14T12:35:51.070Z,16.40
2018-11-14T12:38:22.103Z,16.40
2018-11-14T12:40:54.673Z,16.30
2018-11-14T12:43:25.604Z,16.30
2018-11-14T12:45:58.118Z,16.50
2018-11-14T12:48:28.474Z,16.50
2018-11-14T12:51:01.053Z,16.30
2018-11-14T12:53:31.429Z,16.10
2018-11-14T12:56:02.013Z,15.90
2018-11-14T12:58:32.749Z,15.90
2018-11-14T13:01:05.589Z,15.70
2018-11-14T13:03:47.683Z,15.40
2018-11-14T13:06:24.098Z,15.40
2018-11-14T13:08:54.398Z,15.20
2018-11-14T13:11:27.003Z,15.10
2018-11-14T13:13:57.508Z,15.20
2018-11-14T13:16:27.993Z,15.10
2018-11-14T13:19:00.008Z,15.00
2018-11-14T13:21:32.935Z,14.90
2018-11-14T13:24:03.678Z,14.80
2018-11-14T13:26:36.618Z,14.80
2018-11-14T13:29:07.153Z,14.70
2018-11-14T13:31:39.973Z,14.80
2018-11-14T13:34:10.703Z,14.80
2018-11-14T13:36:43.495Z,14.70
2018-11-14T13:39:15.817Z,14.60
2018-11-14T13:41:50.660Z,14.70
2018-11-14T13:44:20.888Z,14.70
2018-11-14T13:46:53.478Z,14.70
2018-11-14T13:49:24.138Z,14.70
2018-11-14T13:51:55.338Z,14.80
2018-11-14T13:54:25.767Z,14.80
2018-11-14T13:56:59.033Z,14.80
2018-11-14T13:59:29.403Z,14.80
2018-11-14T14:02:02.249Z,14.60
2018-11-14T14:04:33.331Z,14.60
2018-11-14T14:07:10.173Z,14.60
2018-11-14T14:09:40.749Z,14.60
2018-11-14T14:12:13.353Z,14.50
2018-11-14T14:14:44.024Z,14.50
2018-11-14T14:17:14.738Z,14.50
2018-11-14T14:19:45.388Z,14.40
2018-11-14T14:22:18.172Z,14.30
2018-11-14T14:24:48.632Z,14.30
2018-11-14T14:27:21.198Z,14.30
2018-11-14T14:29:51.558Z,14.30
2018-11-14T14:32:22.123Z,14.30
2018-11-14T14:34:52.763Z,14.30
2018-11-14T14:37:25.485Z,14.30
2018-11-14T14:39:57.013Z,14.20
2018-11-14T14:42:29.873Z,14.20
2018-11-14T14:45:01.364Z,14.10
2018-11-14T14:47:34.053Z,14.30
2018-11-14T14:50:05.844Z,14.10
2018-11-14T14:52:38.892Z,14.20
2018-11-14T14:55:12.438Z,14.20
2018-11-14T14:57:45.626Z,14.20
2018-11-14T15:00:22.308Z,14.10
2018-11-14T15:05:30.913Z,14.10
2018-11-14T15:08:02.940Z,14.00
2018-11-14T15:10:33.553Z,14.00
2018-11-14T15:13:04.113Z,14.00
2018-11-14T15:18:13.622Z,14.00
2018-11-14T15:20:44.198Z,14.00
2018-11-14T15:23:15.018Z,13.90
2018-11-14T15:25:45.398Z,13.90
2018-11-14T15:28:18.047Z,13.80
2018-11-14T15:30:48.498Z,13.70
2018-11-14T15:33:21.929Z,13.70
2018-11-14T15:35:52.270Z,13.50
2018-11-14T15:38:24.857Z,13.70
2018-11-14T15:40:55.514Z,13.80
2018-11-14T15:43:29.841Z,13.70
2018-11-14T15:46:00.418Z,13.70
2018-11-14T15:48:33.468Z,13.40
2018-11-14T15:51:04.018Z,13.40
2018-11-14T15:53:36.427Z,13.50
2018-11-14T15:56:07.353Z,13.70
2018-11-14T15:58:40.438Z,13.90
2018-11-14T16:01:15.804Z,13.90
2018-11-14T16:06:23.608Z,13.90
2018-11-14T16:08:56.278Z,14.00
2018-11-14T16:11:28.071Z,14.20
2018-11-14T16:14:00.038Z,14.30
2018-11-14T16:16:32.658Z,14.30
2018-11-14T16:19:03.148Z,14.30
2018-11-14T16:21:33.627Z,14.10
2018-11-14T16:24:04.293Z,14.00
2018-11-14T16:26:37.053Z,14.00
2018-11-14T16:29:07.688Z,14.00
2018-11-14T16:31:40.403Z,14.00
2018-11-14T16:34:11.148Z,14.10
2018-11-14T16:36:43.962Z,14.00
2018-11-14T16:39:14.633Z,14.00
2018-11-14T16:41:45.522Z,13.90
2018-11-14T16:44:17.191Z,13.90
2018-11-14T16:46:50.494Z,13.90
2018-11-14T16:49:21.088Z,14.00
2018-11-14T16:51:53.683Z,14.00
2018-11-14T16:54:24.213Z,14.10
2018-11-14T16:56:56.909Z,14.20
2018-11-14T16:59:27.300Z,14.20
2018-11-14T17:04:34.796Z,14.30
2018-11-14T17:07:05.480Z,14.10
2018-11-14T17:09:38.378Z,14.10
2018-11-14T17:12:08.898Z,14.10
2018-11-14T17:14:41.295Z,14.00
2018-11-14T17:17:12.288Z,13.90
2018-11-14T17:19:45.113Z,13.70
2018-11-14T17:22:15.693Z,13.70
2018-11-14T17:24:48.208Z,13.60
2018-11-14T17:27:19.367Z,13.80
2018-11-14T17:29:54.078Z,13.80
2018-11-14T17:32:24.538Z,13.90
2018-11-14T17:34:57.178Z,13.90
2018-11-14T17:37:27.763Z,14.00
2018-11-14T17:39:58.310Z,14.00
2018-11-14T17:42:28.806Z,14.00
2018-11-14T17:45:01.645Z,14.00
2018-11-14T17:47:32.097Z,14.00
2018-11-14T17:50:04.857Z,13.90
2018-11-14T17:52:35.403Z,14.00
2018-11-14T17:55:06.543Z,14.00
2018-11-14T17:57:36.983Z,13.90
2018-11-14T18:00:11.767Z,13.90
2018-11-14T18:02:43.132Z,14.00
2018-11-14T18:05:18.314Z,14.10
2018-11-14T18:07:49.308Z,14.20
2018-11-14T18:10:23.608Z,14.20
2018-11-14T18:12:55.003Z,14.10
2018-11-14T18:15:27.479Z,14.00
2018-11-14T18:17:58.393Z,13.80
2018-11-14T18:20:32.371Z,13.60
2018-11-14T18:23:03.073Z,13.70
2018-11-14T18:25:39.558Z,13.80
2018-11-14T18:28:09.918Z,13.90
2018-11-14T18:30:43.434Z,13.80
2018-11-14T18:33:13.799Z,13.80
2018-11-14T18:35:46.433Z,13.80
2018-11-14T18:38:16.898Z,13.90
2018-11-14T18:40:47.583Z,13.90
2018-11-14T18:43:18.078Z,13.80
2018-11-14T18:45:51.131Z,13.70
2018-11-14T18:48:21.567Z,13.50
2018-11-14T18:50:55.423Z,13.60
2018-11-14T18:53:25.755Z,13.60
2018-11-14T18:55:58.300Z,13.50
2018-11-14T18:58:28.718Z,13.30
2018-11-14T19:01:01.303Z,13.30
2018-11-14T19:03:31.784Z,13.30
2018-11-14T19:06:04.313Z,13.20
2018-11-14T19:08:34.743Z,13.10
2018-11-14T19:11:09.963Z,13.10
2018-11-14T19:13:40.468Z,13.20
2018-11-14T19:16:13.083Z,13.20
2018-11-14T19:18:43.674Z,13.20
2018-11-14T19:21:18.258Z,13.30
2018-11-14T19:23:48.578Z,13.30
2018-11-14T19:26:21.109Z,13.30
2018-11-14T19:28:51.540Z,13.20
2018-11-14T19:31:24.149Z,13.20
2018-11-14T19:33:54.698Z,13.20
2018-11-14T19:36:27.149Z,13.20
2018-11-14T19:38:57.508Z,13.10
2018-11-14T19:41:29.913Z,13.10
2018-11-14T19:44:00.388Z,13.10
2018-11-14T19:46:33.073Z,13.10
2018-11-14T19:49:03.405Z,13.10
2018-11-14T19:51:36.363Z,13.10
2018-11-14T19:54:06.918Z,13.20
2018-11-14T19:56:39.623Z,13.10
2018-11-14T19:59:10.479Z,13.30
2018-11-14T20:01:42.868Z,13.30
2018-11-14T20:04:13.384Z,13.30
2018-11-14T20:06:47.825Z,13.30
2018-11-14T20:09:18.174Z,13.30
2018-11-14T20:11:53.149Z,13.30
2018-11-14T20:14:23.799Z,13.20
2018-11-14T20:16:56.448Z,13.00
2018-11-14T20:19:26.889Z,13.00
2018-11-14T20:21:59.418Z,13.00
2018-11-14T20:24:29.706Z,12.80
2018-11-14T20:27:00.198Z,12.70
2018-11-14T20:29:30.589Z,12.90
2018-11-14T20:32:03.126Z,12.90
2018-11-14T20:34:33.467Z,13.00
2018-11-14T20:37:06.056Z,13.00
2018-11-14T20:39:36.249Z,13.00
2018-11-14T20:42:09.267Z,13.00
2018-11-14T20:44:39.679Z,13.00
2018-11-14T20:49:47.349Z,12.90
2018-11-14T20:52:17.694Z,13.00
2018-11-14T20:54:54.108Z,12.90
2018-11-14T20:57:24.301Z,12.80
2018-11-14T20:59:57.068Z,12.80
2018-11-14T21:02:27.423Z,12.80
2018-11-14T21:04:59.988Z,12.80
2018-11-14T21:07:33.638Z,12.70
2018-11-14T21:10:04.319Z,12.80
2018-11-14T21:12:37.089Z,12.80
2018-11-14T21:15:10.399Z,12.80
2018-11-14T21:17:41.319Z,12.80
2018-11-14T21:20:14.315Z,12.80
2018-11-14T21:22:44.538Z,12.70
2018-11-14T21:25:18.199Z,12.70
2018-11-14T21:27:49.163Z,12.70
2018-11-14T21:30:22.998Z,12.70
2018-11-14T21:32:53.578Z,12.70
2018-11-14T21:35:29.288Z,12.80
2018-11-14T21:38:00.743Z,12.80
2018-11-14T21:40:33.693Z,12.80
2018-11-14T21:43:03.948Z,12.70
2018-11-14T21:45:36.283Z,12.70
2018-11-14T21:48:18.679Z,12.80
2018-11-14T21:50:51.079Z,12.80
2018-11-14T21:53:21.460Z,12.70
2018-11-14T21:58:29.413Z,12.60
2018-11-14T22:00:59.919Z,12.60
2018-11-14T22:03:34.338Z,12.70
2018-11-14T22:06:04.578Z,12.80
2018-11-14T22:08:34.928Z,12.80
2018-11-14T22:18:52.593Z,12.80
2018-11-14T22:21:22.951Z,12.70
2018-11-14T22:23:55.599Z,12.70
2018-11-14T22:26:25.718Z,12.70
2018-11-14T22:28:58.073Z,12.70
2018-11-14T22:31:28.386Z,12.50
2018-11-14T22:34:00.858Z,12.50
2018-11-14T22:36:31.037Z,12.60
2018-11-14T22:39:03.402Z,12.60
2018-11-14T22:41:33.814Z,12.70
2018-11-14T22:44:06.278Z,12.60
2018-11-14T22:46:36.424Z,12.60
2018-11-14T22:49:09.178Z,12.60
2018-11-14T22:51:39.408Z,12.60
2018-11-14T22:54:09.707Z,12.70
2018-11-14T22:56:39.898Z,12.70
2018-11-14T22:59:10.253Z,12.70
2018-11-14T23:01:42.608Z,12.70
2018-11-14T23:04:14.091Z,12.70
2018-11-14T23:06:46.548Z,12.60
2018-11-14T23:09:16.993Z,12.60
2018-11-14T23:11:49.399Z,12.60
2018-11-14T23:14:19.828Z,12.70
2018-11-14T23:16:52.119Z,12.80
2018-11-14T23:19:34.098Z,12.80
2018-11-14T23:22:09.329Z,12.80
2018-11-14T23:24:39.648Z,12.80
2018-11-14T23:27:12.126Z,12.80
2018-11-14T23:29:42.443Z,12.70
2018-11-14T23:32:12.645Z,12.60
2018-11-14T23:34:47.813Z,12.60
2018-11-14T23:37:20.181Z,12.70
2018-11-14T23:39:50.433Z,12.70
2018-11-14T23:42:20.817Z,12.70
2018-11-14T23:44:51.053Z,12.80
2018-11-14T23:47:23.428Z,12.80
2018-11-14T23:49:53.742Z,12.70
2018-11-14T23:52:26.202Z,12.70
2018-11-14T23:54:56.578Z,12.70
2018-11-14T23:57:28.877Z,12.50
2018-11-14T23:59:59.077Z,12.60
